createdAt,value
2023-07-23T00:00:10.281Z,16.54
2023-07-23T00:02:38.235Z,16.55
2023-07-23T00:05:06.582Z,16.50
2023-07-23T00:07:34.520Z,16.81
2023-07-23T00:10:02.275Z,16.50
2023-07-23T00:12:31.474Z,16.38
2023-07-23T00:14:59.193Z,16.32
2023-07-23T00:17:27.052Z,16.28
2023-07-23T00:19:54.714Z,16.15
2023-07-23T00:22:22.495Z,16.01
2023-07-23T00:24:50.555Z,15.96
2023-07-23T00:27:18.245Z,15.97
2023-07-23T00:29:47.192Z,15.84
2023-07-23T00:32:14.841Z,15.93
2023-07-23T00:34:42.493Z,15.87
2023-07-23T00:37:10.526Z,15.77
2023-07-23T00:39:38.284Z,15.71
2023-07-23T00:42:06.384Z,15.73
2023-07-23T00:44:34.045Z,15.81
2023-07-23T00:47:04.887Z,15.82
2023-07-23T00:49:32.933Z,15.70
2023-07-23T00:52:01.375Z,15.59
2023-07-23T00:54:29.533Z,15.61
2023-07-23T00:56:58.072Z,15.60
2023-07-23T00:59:26.297Z,15.43
2023-07-23T01:01:54.041Z,15.24
2023-07-23T01:04:23.076Z,15.26
2023-07-23T01:06:51.370Z,15.23
2023-07-23T01:09:21.077Z,15.19
2023-07-23T01:11:50.603Z,15.08
2023-07-23T01:14:20.156Z,14.98
2023-07-23T01:16:47.849Z,14.95
2023-07-23T01:19:16.944Z,14.92
2023-07-23T01:21:46.122Z,14.96
2023-07-23T01:24:15.201Z,14.97
2023-07-23T01:26:43.034Z,14.88
2023-07-23T01:29:11.623Z,14.86
2023-07-23T01:31:39.314Z,14.85
2023-07-23T01:34:07.689Z,14.78
2023-07-23T01:36:35.437Z,14.76
2023-07-23T01:39:03.195Z,14.74
2023-07-23T01:41:32.342Z,14.61
2023-07-23T01:44:02.353Z,14.62
2023-07-23T01:46:30.206Z,14.62
2023-07-23T01:48:58.046Z,14.65
2023-07-23T01:51:26.117Z,14.64
2023-07-23T01:53:53.998Z,14.61
2023-07-23T01:56:21.637Z,14.53
2023-07-23T01:58:50.541Z,14.58
2023-07-23T02:01:18.348Z,14.58
2023-07-23T02:03:46.131Z,14.58
2023-07-23T02:06:13.891Z,14.47
2023-07-23T02:08:41.622Z,14.51
2023-07-23T02:11:09.237Z,14.40
2023-07-23T02:13:37.330Z,14.33
2023-07-23T02:16:07.103Z,14.28
2023-07-23T02:18:34.859Z,14.21
2023-07-23T02:21:02.521Z,14.10
2023-07-23T02:23:30.261Z,14.17
2023-07-23T02:25:57.905Z,14.13
2023-07-23T02:28:25.647Z,14.18
2023-07-23T02:30:58.234Z,14.10
2023-07-23T02:33:28.226Z,14.07
2023-07-23T02:35:55.875Z,13.99
2023-07-23T02:38:23.495Z,14.09
2023-07-23T02:40:57.132Z,13.97
2023-07-23T02:43:25.241Z,13.87
2023-07-23T02:45:53.745Z,13.74
2023-07-23T02:48:21.369Z,13.74
2023-07-23T02:50:50.443Z,13.87
2023-07-23T02:53:18.141Z,13.83
2023-07-23T02:55:46.462Z,13.92
2023-07-23T02:58:14.089Z,13.78
2023-07-23T03:00:41.775Z,13.79
2023-07-23T03:03:10.121Z,13.76
2023-07-23T03:05:38.918Z,13.71
2023-07-23T03:08:08.156Z,13.73
2023-07-23T03:10:35.892Z,13.56
2023-07-23T03:13:03.588Z,13.64
2023-07-23T03:15:31.946Z,13.73
2023-07-23T03:17:59.629Z,13.63
2023-07-23T03:20:27.621Z,13.61
2023-07-23T03:22:55.310Z,13.65
2023-07-23T03:25:24.312Z,13.46
2023-07-23T03:27:51.964Z,13.50
2023-07-23T03:30:19.788Z,13.51
2023-07-23T03:32:47.605Z,13.50
2023-07-23T03:35:15.274Z,13.45
2023-07-23T03:37:42.937Z,13.40
2023-07-23T03:40:11.136Z,13.47
2023-07-23T03:42:40.128Z,13.40
2023-07-23T03:45:09.373Z,13.42
2023-07-23T03:47:37.179Z,13.44
2023-07-23T03:50:05.372Z,13.35
2023-07-23T03:52:33.107Z,13.45
2023-07-23T03:55:00.759Z,13.55
2023-07-23T03:57:28.481Z,13.55
2023-07-23T03:59:57.515Z,13.55
2023-07-23T04:02:25.335Z,13.80
2023-07-23T04:04:52.981Z,13.81
2023-07-23T04:07:20.634Z,13.95
2023-07-23T04:09:48.271Z,14.07
2023-07-23T04:12:15.992Z,14.25
2023-07-23T04:14:44.935Z,14.26
2023-07-23T04:17:17.682Z,14.41
2023-07-23T04:19:46.027Z,14.49
2023-07-23T04:22:13.756Z,14.60
2023-07-23T04:24:41.495Z,14.59
2023-07-23T04:27:09.280Z,14.61
2023-07-23T04:29:36.918Z,14.80
2023-07-23T04:32:04.919Z,15.09
2023-07-23T04:34:33.855Z,15.53
2023-07-23T04:37:01.626Z,15.90
2023-07-23T04:39:29.261Z,16.29
2023-07-23T04:41:56.937Z,16.71
2023-07-23T04:44:24.968Z,17.11
2023-07-23T04:46:52.675Z,17.40
2023-07-23T04:49:20.369Z,17.63
2023-07-23T04:51:49.391Z,17.88
2023-07-23T04:54:17.175Z,18.22
2023-07-23T04:56:44.873Z,18.46
2023-07-23T04:59:12.478Z,18.60
2023-07-23T05:01:40.589Z,18.65
2023-07-23T05:04:08.443Z,18.65
2023-07-23T05:06:36.160Z,18.58
2023-07-23T05:09:05.376Z,18.83
2023-07-23T05:11:33.198Z,18.89
2023-07-23T05:14:00.969Z,18.96
2023-07-23T05:16:28.594Z,19.11
2023-07-23T05:18:56.327Z,19.23
2023-07-23T05:21:24.070Z,19.29
2023-07-23T05:23:51.807Z,19.26
2023-07-23T05:26:20.930Z,19.37
2023-07-23T05:28:48.692Z,19.48
2023-07-23T05:31:16.575Z,19.51
2023-07-23T05:33:44.327Z,19.62
2023-07-23T05:36:12.193Z,19.68
2023-07-23T05:38:40.165Z,19.90
2023-07-23T05:41:07.874Z,20.12
2023-07-23T05:43:36.908Z,20.31
2023-07-23T05:46:04.814Z,20.55
2023-07-23T05:48:32.577Z,20.79
2023-07-23T05:51:00.245Z,21.01
2023-07-23T05:53:27.908Z,20.73
2023-07-23T05:55:55.646Z,20.69
2023-07-23T05:58:23.288Z,20.82
2023-07-23T06:00:52.306Z,21.02
2023-07-23T06:03:20.088Z,20.93
2023-07-23T06:05:47.931Z,20.68
2023-07-23T06:08:15.758Z,20.62
2023-07-23T06:10:43.741Z,20.82
2023-07-23T06:13:11.692Z,21.00
2023-07-23T06:15:39.381Z,21.04
2023-07-23T06:18:08.351Z,21.52
2023-07-23T06:20:36.028Z,21.80
2023-07-23T06:23:03.756Z,21.66
2023-07-23T06:25:31.437Z,21.57
2023-07-23T06:27:59.160Z,21.72
2023-07-23T06:30:26.982Z,21.94
2023-07-23T06:32:54.677Z,21.88
2023-07-23T06:35:23.716Z,21.85
2023-07-23T06:37:51.384Z,21.77
2023-07-23T06:40:19.143Z,21.71
2023-07-23T06:42:47.156Z,21.76
2023-07-23T06:45:15.150Z,21.98
2023-07-23T06:47:42.893Z,22.33
2023-07-23T06:50:11.341Z,22.08
2023-07-23T06:52:40.329Z,21.84
2023-07-23T06:57:35.854Z,22.09
2023-07-23T07:00:03.892Z,21.99
2023-07-23T07:02:31.591Z,21.83
2023-07-23T07:04:59.304Z,22.02
2023-07-23T07:07:27.222Z,22.00
2023-07-23T07:09:56.365Z,21.92
2023-07-23T07:12:24.043Z,22.15
2023-07-23T07:14:51.893Z,22.09
2023-07-23T07:17:19.541Z,22.26
2023-07-23T07:19:47.399Z,21.90
2023-07-23T07:22:15.104Z,21.53
2023-07-23T07:24:42.760Z,21.52
2023-07-23T07:27:12.130Z,21.55
2023-07-23T07:29:42.213Z,21.56
2023-07-23T07:32:10.687Z,21.21
2023-07-23T07:34:38.417Z,21.26
2023-07-23T07:37:06.752Z,21.17
2023-07-23T07:39:35.631Z,21.15
2023-07-23T07:42:03.345Z,21.17
2023-07-23T07:44:33.847Z,21.40
2023-07-23T07:47:01.819Z,21.44
2023-07-23T07:49:29.619Z,21.54
2023-07-23T07:51:57.466Z,21.53
2023-07-23T07:54:25.311Z,21.33
2023-07-23T07:56:53.662Z,21.24
2023-07-23T07:59:21.875Z,21.16
2023-07-23T08:01:51.557Z,21.19
2023-07-23T08:04:19.802Z,20.96
2023-07-23T08:06:47.875Z,21.24
2023-07-23T08:09:18.747Z,21.43
2023-07-23T08:11:49.535Z,21.43
2023-07-23T08:14:19.685Z,21.29
2023-07-23T08:16:49.803Z,21.26
2023-07-23T08:19:19.420Z,21.26
2023-07-23T08:21:47.731Z,21.37
2023-07-23T08:24:15.805Z,21.41
2023-07-23T08:26:44.812Z,21.52
2023-07-23T08:29:14.539Z,21.46
2023-07-23T08:31:42.577Z,21.64
2023-07-23T08:34:10.578Z,21.58
2023-07-23T08:36:40.224Z,21.58
2023-07-23T08:39:08.938Z,21.37
2023-07-23T08:41:39.330Z,21.66
2023-07-23T08:44:34.938Z,21.50
2023-07-23T08:47:13.077Z,21.55
2023-07-23T08:49:42.616Z,21.80
2023-07-23T08:52:12.958Z,21.75
2023-07-23T08:54:41.712Z,21.92
2023-07-23T08:57:10.396Z,21.99
2023-07-23T08:59:38.666Z,22.11
2023-07-23T09:02:08.897Z,22.20
2023-07-23T09:04:36.541Z,22.09
2023-07-23T09:07:05.668Z,22.30
2023-07-23T09:09:34.813Z,22.36
2023-07-23T09:12:04.647Z,22.71
2023-07-23T09:14:42.020Z,22.37
2023-07-23T09:17:18.377Z,22.15
2023-07-23T09:19:46.360Z,22.25
2023-07-23T09:22:14.176Z,22.34
2023-07-23T09:24:43.538Z,22.49
2023-07-23T09:27:12.462Z,22.55
2023-07-23T09:29:43.131Z,22.42
2023-07-23T09:32:27.658Z,22.58
2023-07-23T09:34:56.661Z,22.43
2023-07-23T09:37:24.390Z,22.82
2023-07-23T09:39:57.000Z,23.12
2023-07-23T09:42:25.310Z,23.22
2023-07-23T09:44:53.625Z,23.27
2023-07-23T09:47:26.152Z,23.26
2023-07-23T09:49:54.532Z,23.25
2023-07-23T09:52:24.924Z,23.30
2023-07-23T09:54:53.715Z,23.49
2023-07-23T09:57:25.776Z,23.52
2023-07-23T09:59:54.615Z,23.44
2023-07-23T10:02:25.323Z,23.35
2023-07-23T10:04:54.031Z,23.31
2023-07-23T10:07:22.781Z,23.64
2023-07-23T10:09:50.900Z,23.69
2023-07-23T10:12:18.719Z,23.87
2023-07-23T10:14:47.977Z,24.02
2023-07-23T10:17:16.167Z,24.01
2023-07-23T10:19:45.271Z,24.12
2023-07-23T10:22:13.302Z,24.10
2023-07-23T10:24:41.590Z,24.47
2023-07-23T10:27:13.546Z,24.77
2023-07-23T10:29:41.311Z,24.93
2023-07-23T10:32:27.902Z,25.02
2023-07-23T10:34:56.237Z,25.16
2023-07-23T10:37:24.476Z,24.96
2023-07-23T10:39:54.415Z,24.87
2023-07-23T10:42:45.465Z,25.04
2023-07-23T10:45:17.069Z,24.94
2023-07-23T10:47:50.601Z,25.22
2023-07-23T10:50:19.813Z,25.06
2023-07-23T10:52:48.285Z,25.05
2023-07-23T10:55:34.173Z,25.32
2023-07-23T10:58:02.990Z,25.06
2023-07-23T11:00:32.654Z,25.09
2023-07-23T11:03:01.981Z,25.05
2023-07-23T11:05:40.708Z,24.95
2023-07-23T11:08:19.191Z,25.10
2023-07-23T11:10:56.874Z,24.93
2023-07-23T11:13:28.640Z,25.01
2023-07-23T11:15:56.972Z,25.07
2023-07-23T11:18:26.444Z,25.43
2023-07-23T11:20:55.739Z,25.62
2023-07-23T11:23:26.715Z,25.42
2023-07-23T11:25:54.746Z,25.87
2023-07-23T11:28:24.267Z,26.37
2023-07-23T11:30:56.067Z,26.61
2023-07-23T11:33:24.131Z,26.60
2023-07-23T11:35:53.439Z,26.34
2023-07-23T11:38:21.226Z,26.39
2023-07-23T11:40:53.332Z,26.87
2023-07-23T11:43:21.250Z,27.32
2023-07-23T11:45:50.465Z,27.42
2023-07-23T11:48:20.070Z,28.15
2023-07-23T11:50:49.073Z,28.49
2023-07-23T11:53:32.283Z,28.75
2023-07-23T11:56:06.651Z,28.00
2023-07-23T11:58:36.472Z,27.65
2023-07-23T12:01:06.688Z,27.43
2023-07-23T12:03:36.424Z,27.08
2023-07-23T12:06:05.889Z,27.34
2023-07-23T12:08:36.517Z,27.30
2023-07-23T12:11:09.810Z,27.03
2023-07-23T12:13:43.718Z,27.42
2023-07-23T12:16:34.862Z,27.04
2023-07-23T12:19:05.194Z,27.35
2023-07-23T12:21:36.016Z,27.82
2023-07-23T12:24:15.218Z,27.77
2023-07-23T12:26:42.941Z,28.16
2023-07-23T12:29:11.122Z,27.67
2023-07-23T12:31:42.648Z,28.65
2023-07-23T12:34:11.126Z,28.04
2023-07-23T12:36:39.584Z,28.27
2023-07-23T12:39:09.488Z,27.83
2023-07-23T12:41:38.805Z,27.49
2023-07-23T12:44:06.851Z,27.46
2023-07-23T12:46:34.660Z,27.65
2023-07-23T12:49:02.372Z,27.42
2023-07-23T12:51:30.178Z,26.95
2023-07-23T12:53:57.782Z,27.62
2023-07-23T12:56:25.437Z,27.08
2023-07-23T12:58:54.515Z,27.36
2023-07-23T13:01:22.328Z,27.29
2023-07-23T13:03:50.543Z,27.96
2023-07-23T13:06:18.255Z,27.59
2023-07-23T13:08:45.916Z,28.76
2023-07-23T13:11:13.664Z,28.14
2023-07-23T13:13:41.366Z,28.26
2023-07-23T13:16:11.341Z,28.23
2023-07-23T13:18:39.064Z,29.05
2023-07-23T13:21:06.827Z,28.37
2023-07-23T13:23:34.490Z,28.28
2023-07-23T13:26:02.372Z,28.33
2023-07-23T13:28:30.033Z,28.44
2023-07-23T13:30:59.298Z,28.44
2023-07-23T13:33:28.397Z,28.48
2023-07-23T13:35:56.123Z,27.92
2023-07-23T13:38:25.421Z,27.63
2023-07-23T13:40:53.483Z,27.83
2023-07-23T13:43:21.104Z,27.69
2023-07-23T13:45:48.806Z,27.70
2023-07-23T13:48:16.474Z,28.20
2023-07-23T13:50:51.487Z,28.46
2023-07-23T13:53:20.242Z,28.21
2023-07-23T13:55:48.286Z,28.47
2023-07-23T13:58:16.014Z,27.89
2023-07-23T14:00:43.950Z,28.28
2023-07-23T14:03:12.050Z,28.68
2023-07-23T14:05:39.867Z,28.51
2023-07-23T14:08:09.098Z,28.52
2023-07-23T14:10:37.727Z,28.56
2023-07-23T14:13:05.754Z,28.82
2023-07-23T14:15:33.418Z,29.12
2023-07-23T14:18:02.306Z,28.68
2023-07-23T14:20:30.385Z,28.35
2023-07-23T14:22:58.046Z,28.19
2023-07-23T14:25:27.145Z,28.53
2023-07-23T14:27:54.816Z,28.48
2023-07-23T14:30:23.033Z,28.09
2023-07-23T14:32:50.839Z,28.11
2023-07-23T14:35:18.586Z,27.54
2023-07-23T14:37:46.692Z,27.25
2023-07-23T14:40:14.377Z,27.55
2023-07-23T14:42:43.370Z,27.84
2023-07-23T14:45:12.505Z,27.65
2023-07-23T14:47:40.233Z,28.13
2023-07-23T14:50:09.651Z,27.93
2023-07-23T14:52:37.575Z,27.90
2023-07-23T14:55:05.764Z,27.26
2023-07-23T14:57:33.611Z,27.20
2023-07-23T15:00:02.825Z,27.53
2023-07-23T15:02:30.661Z,27.71
2023-07-23T15:04:58.640Z,27.44
2023-07-23T15:07:26.584Z,27.98
2023-07-23T15:09:54.317Z,27.98
2023-07-23T15:12:22.450Z,28.09
2023-07-23T15:14:50.825Z,27.77
2023-07-23T15:17:20.828Z,28.00
2023-07-23T15:19:49.235Z,28.27
2023-07-23T15:22:17.501Z,28.40
2023-07-23T15:24:45.688Z,28.77
2023-07-23T15:27:15.570Z,28.39
2023-07-23T15:29:44.307Z,28.12
2023-07-23T15:32:12.587Z,28.30
2023-07-23T15:34:41.865Z,27.72
2023-07-23T15:37:09.556Z,27.90
2023-07-23T15:39:37.390Z,27.74
2023-07-23T15:42:05.619Z,27.50
2023-07-23T15:44:33.588Z,27.50
2023-07-23T15:47:01.432Z,27.50
2023-07-23T15:49:31.252Z,27.63
2023-07-23T15:52:02.892Z,27.56
2023-07-23T15:54:31.079Z,27.97
2023-07-23T15:56:58.653Z,28.16
2023-07-23T15:59:26.321Z,28.10
2023-07-23T16:01:53.983Z,28.24
2023-07-23T16:04:21.609Z,28.66
2023-07-23T16:06:49.237Z,28.52
2023-07-23T16:09:18.305Z,28.33
2023-07-23T16:11:45.907Z,28.01
2023-07-23T16:14:13.545Z,28.18
2023-07-23T16:16:41.167Z,27.61
2023-07-23T16:19:08.877Z,27.25
2023-07-23T16:21:36.426Z,27.44
2023-07-23T16:24:05.429Z,27.38
2023-07-23T16:26:34.525Z,27.35
2023-07-23T16:29:02.122Z,27.47
2023-07-23T16:31:30.085Z,27.43
2023-07-23T16:33:58.578Z,27.37
2023-07-23T16:36:30.428Z,27.41
2023-07-23T16:38:58.434Z,27.44
2023-07-23T16:41:26.563Z,27.34
2023-07-23T16:43:56.587Z,27.37
2023-07-23T16:46:25.322Z,27.85
2023-07-23T16:48:53.992Z,27.89
2023-07-23T16:51:21.721Z,27.74
2023-07-23T16:53:49.407Z,27.59
2023-07-23T16:56:17.122Z,26.98
2023-07-23T16:58:47.525Z,26.98
2023-07-23T17:01:16.676Z,26.90
2023-07-23T17:03:44.381Z,26.79
2023-07-23T17:06:12.091Z,26.60
2023-07-23T17:08:39.828Z,26.67
2023-07-23T17:11:15.852Z,26.74
2023-07-23T17:13:43.580Z,26.48
2023-07-23T17:16:11.328Z,26.73
2023-07-23T17:18:40.289Z,26.69
2023-07-23T17:21:07.989Z,26.55
2023-07-23T17:23:35.669Z,26.53
2023-07-23T17:26:03.430Z,26.42
2023-07-23T17:28:32.368Z,26.52
2023-07-23T17:31:02.140Z,26.46
2023-07-23T17:33:30.348Z,26.48
2023-07-23T17:35:59.448Z,26.65
2023-07-23T17:38:27.133Z,26.48
2023-07-23T17:40:54.786Z,26.36
2023-07-23T17:43:22.438Z,26.15
2023-07-23T17:45:50.043Z,26.08
2023-07-23T17:48:17.755Z,26.04
2023-07-23T17:50:45.329Z,26.03
2023-07-23T17:53:14.374Z,26.01
2023-07-23T17:55:42.244Z,26.07
2023-07-23T17:58:12.727Z,26.12
2023-07-23T18:00:40.437Z,26.11
2023-07-23T18:03:08.372Z,26.15
2023-07-23T18:05:36.269Z,26.11
2023-07-23T18:08:04.125Z,26.13
2023-07-23T18:10:33.353Z,26.24
2023-07-23T18:13:01.103Z,26.16
2023-07-23T18:15:28.865Z,26.14
2023-07-23T18:17:56.551Z,25.92
2023-07-23T18:20:24.683Z,26.12
2023-07-23T18:22:52.409Z,26.18
2023-07-23T18:25:20.164Z,26.06
2023-07-23T18:27:49.552Z,26.19
2023-07-23T18:30:17.744Z,26.11
2023-07-23T18:32:45.682Z,26.04
2023-07-23T18:35:14.327Z,25.94
2023-07-23T18:37:42.175Z,25.78
2023-07-23T18:40:10.852Z,25.67
2023-07-23T18:42:38.540Z,25.72
2023-07-23T18:45:09.328Z,25.82
2023-07-23T18:47:37.368Z,25.80
2023-07-23T18:50:07.176Z,25.90
2023-07-23T18:52:35.425Z,25.89
2023-07-23T18:55:03.403Z,25.77
2023-07-23T18:57:31.191Z,25.83
2023-07-23T18:59:59.073Z,25.85
2023-07-23T19:02:28.312Z,25.93
2023-07-23T19:04:56.144Z,25.80
2023-07-23T19:07:24.022Z,25.82
2023-07-23T19:09:51.978Z,25.67
2023-07-23T19:12:19.962Z,25.61
2023-07-23T19:14:47.868Z,25.51
2023-07-23T19:17:16.841Z,25.40
2023-07-23T19:19:46.536Z,25.42
2023-07-23T19:22:14.337Z,25.37
2023-07-23T19:24:42.296Z,25.23
2023-07-23T19:27:10.768Z,25.37
2023-07-23T19:29:39.146Z,25.33
2023-07-23T19:32:07.455Z,25.27
2023-07-23T19:34:35.205Z,25.26
2023-07-23T19:37:05.016Z,25.20
2023-07-23T19:39:32.919Z,25.07
2023-07-23T19:42:00.650Z,24.94
2023-07-23T19:44:28.851Z,24.69
2023-07-23T19:46:56.914Z,24.57
2023-07-23T19:49:24.778Z,24.56
2023-07-23T19:51:52.663Z,24.48
2023-07-23T19:54:22.021Z,24.44
2023-07-23T19:56:49.841Z,24.33
2023-07-23T19:59:17.696Z,24.24
2023-07-23T20:01:45.507Z,24.03
2023-07-23T20:04:13.237Z,23.88
2023-07-23T20:06:41.218Z,23.81
2023-07-23T20:09:09.017Z,23.73
2023-07-23T20:11:39.314Z,23.83
2023-07-23T20:14:07.053Z,23.77
2023-07-23T20:16:34.934Z,23.66
2023-07-23T20:19:02.751Z,23.45
2023-07-23T20:21:42.425Z,23.33
2023-07-23T20:24:14.703Z,23.16
2023-07-23T20:26:44.170Z,22.98
2023-07-23T20:29:12.548Z,22.78
2023-07-23T20:31:40.646Z,22.83
2023-07-23T20:34:09.127Z,22.57
2023-07-23T20:36:37.282Z,22.42
2023-07-23T20:39:05.491Z,22.37
2023-07-23T20:41:35.441Z,22.28
2023-07-23T20:44:04.583Z,22.16
2023-07-23T20:46:32.848Z,22.11
2023-07-23T20:49:00.869Z,22.04
2023-07-23T20:51:28.592Z,22.04
2023-07-23T20:53:56.265Z,21.96
2023-07-23T20:56:24.737Z,21.75
2023-07-23T20:58:52.749Z,21.73
2023-07-23T21:01:21.842Z,21.75
2023-07-23T21:03:49.743Z,21.62
2023-07-23T21:06:17.561Z,21.53
2023-07-23T21:08:45.483Z,21.46
2023-07-23T21:11:13.106Z,21.39
2023-07-23T21:13:40.798Z,21.41
2023-07-23T21:16:08.687Z,21.33
2023-07-23T21:18:37.746Z,21.42
2023-07-23T21:21:05.515Z,21.28
2023-07-23T21:23:33.290Z,21.19
2023-07-23T21:26:01.078Z,21.16
2023-07-23T21:28:28.845Z,21.12
2023-07-23T21:30:56.847Z,21.10
2023-07-23T21:33:24.558Z,21.07
2023-07-23T21:35:53.654Z,21.02
2023-07-23T21:38:21.326Z,20.92
2023-07-23T21:40:49.131Z,20.90
2023-07-23T21:43:16.769Z,20.95
2023-07-23T21:45:50.503Z,20.83
2023-07-23T21:48:19.369Z,20.69
2023-07-23T21:50:46.982Z,20.61
2023-07-23T21:53:16.114Z,20.60
2023-07-23T21:55:44.224Z,20.65
2023-07-23T21:58:11.990Z,20.52
2023-07-23T22:00:39.782Z,20.53
2023-07-23T22:03:07.483Z,20.48
2023-07-23T22:05:35.260Z,20.42
2023-07-23T22:08:03.082Z,20.58
2023-07-23T22:10:32.265Z,20.39
2023-07-23T22:13:00.035Z,20.30
2023-07-23T22:15:27.927Z,20.23
2023-07-23T22:17:55.698Z,20.35
2023-07-23T22:20:23.442Z,20.22
2023-07-23T22:22:51.185Z,20.13
2023-07-23T22:25:18.894Z,20.06
2023-07-23T22:27:48.002Z,19.94
2023-07-23T22:30:28.969Z,19.96
2023-07-23T22:32:58.406Z,20.05
2023-07-23T22:35:26.235Z,20.15
2023-07-23T22:37:54.956Z,20.18
2023-07-23T22:40:22.695Z,20.09
2023-07-23T22:43:02.870Z,19.93
2023-07-23T22:45:32.199Z,19.89
2023-07-23T22:48:00.044Z,19.86
2023-07-23T22:50:29.202Z,19.84
2023-07-23T22:52:56.890Z,19.73
2023-07-23T22:55:24.561Z,19.87
2023-07-23T22:57:54.072Z,19.73
2023-07-23T23:00:22.138Z,19.58
2023-07-23T23:02:49.983Z,19.52
2023-07-23T23:05:17.790Z,19.56
2023-07-23T23:07:45.461Z,19.53
2023-07-23T23:10:13.296Z,19.57
2023-07-23T23:12:40.931Z,19.64
2023-07-23T23:15:10.787Z,19.60
2023-07-23T23:17:38.462Z,19.58
2023-07-23T23:20:07.493Z,19.46
2023-07-23T23:22:35.156Z,19.39
2023-07-23T23:25:02.937Z,19.36
2023-07-23T23:27:34.081Z,19.24
2023-07-23T23:30:01.953Z,19.35
2023-07-23T23:32:31.019Z,19.35
2023-07-23T23:34:58.828Z,19.25
2023-07-23T23:37:26.481Z,19.18
2023-07-23T23:39:54.177Z,19.11
2023-07-23T23:42:21.917Z,19.11
2023-07-23T23:44:50.102Z,18.98
2023-07-23T23:47:17.825Z,19.02
2023-07-23T23:49:46.860Z,19.03
2023-07-23T23:52:14.516Z,18.99
2023-07-23T23:54:42.185Z,18.92
2023-07-23T23:57:09.977Z,18.90
2023-07-23T23:59:38.154Z,18.93
